createdAt,value
2022-12-15T00:01:30.702Z,10.00
2022-12-15T00:15:30.722Z,9.70
2022-12-15T00:29:30.716Z,9.00
2022-12-15T00:43:31.089Z,8.90
2022-12-15T00:57:30.769Z,8.90
2022-12-15T01:11:30.776Z,8.10
2022-12-15T01:25:30.807Z,8.15
2022-12-15T01:39:30.806Z,7.90
2022-12-15T01:53:31.153Z,7.90
2022-12-15T02:07:30.812Z,7.25
2022-12-15T02:21:30.823Z,7.20
2022-12-15T02:35:30.889Z,7.00
2022-12-15T02:49:30.869Z,6.50
2022-12-15T03:03:31.237Z,6.40
2022-12-15T03:17:30.895Z,6.40
2022-12-15T03:31:30.953Z,6.10
2022-12-15T03:45:30.934Z,5.70
2022-12-15T03:59:30.923Z,5.70
2022-12-15T04:13:31.262Z,5.60
2022-12-15T04:27:30.962Z,5.20
2022-12-15T04:41:30.969Z,5.30
2022-12-15T04:55:30.986Z,5.00
2022-12-15T05:09:30.965Z,4.80
2022-12-15T05:24:31.006Z,4.50
2022-12-15T05:38:31.112Z,4.40
2022-12-15T05:52:31.118Z,4.10
2022-12-15T06:06:31.115Z,4.30
2022-12-15T06:20:31.151Z,5.00
2022-12-15T06:34:31.123Z,5.00
2022-12-15T06:49:31.150Z,5.10
2022-12-15T07:04:31.205Z,5.50
2022-12-15T07:19:31.149Z,7.40
2022-12-15T07:35:31.164Z,6.85
2022-12-15T07:50:31.197Z,6.90
2022-12-15T08:05:31.259Z,6.90
2022-12-15T08:20:31.253Z,6.90
2022-12-15T08:35:47.284Z,6.70
2022-12-15T08:50:31.280Z,6.10
2022-12-15T09:05:31.304Z,6.50
2022-12-15T09:20:31.287Z,6.00
2022-12-15T09:35:31.312Z,6.00
2022-12-15T09:50:31.320Z,5.60
2022-12-15T10:05:50.404Z,5.70
2022-12-15T10:20:31.483Z,5.30
2022-12-15T10:35:31.466Z,5.60
2022-12-15T10:50:31.545Z,5.70
2022-12-15T11:05:31.501Z,10.80
2022-12-15T11:20:31.525Z,12.60
2022-12-15T11:36:31.526Z,13.10
2022-12-15T11:51:31.929Z,12.40
2022-12-15T12:06:31.863Z,12.50
2022-12-15T12:21:31.865Z,12.30
2022-12-15T12:36:31.856Z,11.20
2022-12-15T12:51:31.909Z,10.90
2022-12-15T13:06:31.903Z,10.00
2022-12-15T13:21:31.966Z,9.00
2022-12-15T13:36:31.922Z,9.00
2022-12-15T13:49:05.951Z,8.10
2022-12-15T14:04:06.355Z,7.60
2022-12-15T14:19:06.496Z,7.20
2022-12-15T14:34:06.936Z,6.60
2022-12-15T14:50:07.771Z,6.20
2022-12-15T15:05:07.360Z,6.00
2022-12-15T15:20:07.552Z,6.50
2022-12-15T15:35:07.623Z,5.90
2022-12-15T15:50:07.810Z,5.80
2022-12-15T16:04:07.725Z,5.30
2022-12-15T16:18:07.703Z,5.90
2022-12-15T16:32:08.176Z,5.60
2022-12-15T16:46:07.920Z,5.70
2022-12-15T17:00:08.400Z,5.10
2022-12-15T17:14:08.344Z,5.10
2022-12-15T17:28:09.026Z,4.95
2022-12-15T17:42:09.054Z,4.05
2022-12-15T17:56:09.117Z,3.90
2022-12-15T18:10:08.793Z,4.10
2022-12-15T18:24:09.117Z,4.00
2022-12-15T18:38:09.086Z,4.00
2022-12-15T18:52:09.128Z,4.00
2022-12-15T19:06:09.164Z,4.00
2022-12-15T19:20:09.388Z,4.00
2022-12-15T19:34:08.942Z,4.00
2022-12-15T19:48:08.946Z,3.70
2022-12-15T20:02:09.009Z,5.90
2022-12-15T20:16:08.994Z,15.40
2022-12-15T20:30:08.926Z,49.70
2022-12-15T20:44:08.991Z,56.80
2022-12-15T20:58:09.366Z,61.60
2022-12-15T21:12:09.390Z,57.40
2022-12-15T21:26:09.069Z,54.00
2022-12-15T21:40:09.138Z,48.70
2022-12-15T21:54:09.647Z,46.80
2022-12-15T22:08:10.336Z,42.40
2022-12-15T22:22:10.459Z,40.30
2022-12-15T22:36:10.351Z,36.70
2022-12-15T22:50:10.367Z,35.40
2022-12-15T23:04:10.349Z,32.20
2022-12-15T23:18:10.341Z,29.30
2022-12-15T23:32:10.354Z,27.30
2022-12-15T23:47:10.399Z,24.80
